sensor_id;sensor_type;location;lat;lon;timestamp;temperature;humidity
47168;DHT22;32931;47.778;17.806;2023-10-13T00:01:47;18.60;99.90
47168;DHT22;32931;47.778;17.806;2023-10-13T00:04:14;18.60;99.90
47168;DHT22;32931;47.778;17.806;2023-10-13T00:06:40;18.60;99.90
47168;DHT22;32931;47.778;17.806;2023-10-13T00:09:08;18.60;99.90
47168;DHT22;32931;47.778;17.806;2023-10-13T00:11:43;18.60;99.90
47168;DHT22;32931;47.778;17.806;2023-10-13T00:14:13;18.60;99.90
47168;DHT22;32931;47.778;17.806;2023-10-13T00:16:43;18.60;99.90
47168;DHT22;32931;47.778;17.806;2023-10-13T00:19:29;18.60;99.90
47168;DHT22;32931;47.778;17.806;2023-10-13T00:22:07;18.60;99.90
47168;DHT22;32931;47.778;17.806;2023-10-13T00:24:37;18.60;99.90
47168;DHT22;32931;47.778;17.806;2023-10-13T00:27:13;18.60;99.90
47168;DHT22;32931;47.778;17.806;2023-10-13T00:30:03;18.60;99.90
47168;DHT22;32931;47.778;17.806;2023-10-13T00:32:45;18.60;99.90
47168;DHT22;32931;47.778;17.806;2023-10-13T00:35:13;18.60;99.90
47168;DHT22;32931;47.778;17.806;2023-10-13T00:37:54;18.50;99.90
47168;DHT22;32931;47.778;17.806;2023-10-13T00:40:22;18.50;99.90
47168;DHT22;32931;47.778;17.806;2023-10-13T00:43:08;18.50;99.90
47168;DHT22;32931;47.778;17.806;2023-10-13T00:48:30;18.50;99.90
47168;DHT22;32931;47.778;17.806;2023-10-13T00:51:04;18.50;99.90
47168;DHT22;32931;47.778;17.806;2023-10-13T00:53:35;18.50;99.90
47168;DHT22;32931;47.778;17.806;2023-10-13T00:56:10;18.40;99.90
47168;DHT22;32931;47.778;17.806;2023-10-13T00:58:50;18.40;99.90
47168;DHT22;32931;47.778;17.806;2023-10-13T01:01:17;18.40;99.90
47168;DHT22;32931;47.778;17.806;2023-10-13T01:03:48;18.40;99.90
47168;DHT22;32931;47.778;17.806;2023-10-13T01:06:18;18.40;99.90
47168;DHT22;32931;47.778;17.806;2023-10-13T01:08:46;18.30;99.90
47168;DHT22;32931;47.778;17.806;2023-10-13T01:11:18;18.30;99.90
47168;DHT22;32931;47.778;17.806;2023-10-13T01:13:46;18.30;99.90
47168;DHT22;32931;47.778;17.806;2023-10-13T01:16:18;18.30;99.90
47168;DHT22;32931;47.778;17.806;2023-10-13T01:18:47;18.30;99.90
47168;DHT22;32931;47.778;17.806;2023-10-13T01:21:15;18.30;99.90
47168;DHT22;32931;47.778;17.806;2023-10-13T01:23:43;18.20;99.90
47168;DHT22;32931;47.778;17.806;2023-10-13T01:26:11;18.20;99.90
47168;DHT22;32931;47.778;17.806;2023-10-13T01:28:43;18.30;99.90
47168;DHT22;32931;47.778;17.806;2023-10-13T01:31:13;18.30;99.90
47168;DHT22;32931;47.778;17.806;2023-10-13T01:33:51;18.30;99.90
47168;DHT22;32931;47.778;17.806;2023-10-13T01:36:22;18.30;99.90
47168;DHT22;32931;47.778;17.806;2023-10-13T01:38:49;18.20;99.90
47168;DHT22;32931;47.778;17.806;2023-10-13T01:41:21;18.20;99.90
47168;DHT22;32931;47.778;17.806;2023-10-13T01:43:47;18.20;99.90
47168;DHT22;32931;47.778;17.806;2023-10-13T01:46:14;18.20;99.90
47168;DHT22;32931;47.778;17.806;2023-10-13T01:48:47;18.20;99.90
47168;DHT22;32931;47.778;17.806;2023-10-13T01:51:14;18.20;99.90
47168;DHT22;32931;47.778;17.806;2023-10-13T01:53:40;18.10;99.90
47168;DHT22;32931;47.778;17.806;2023-10-13T01:56:10;18.20;99.90
47168;DHT22;32931;47.778;17.806;2023-10-13T01:58:40;18.20;99.90
47168;DHT22;32931;47.778;17.806;2023-10-13T02:01:09;18.20;99.90
47168;DHT22;32931;47.778;17.806;2023-10-13T02:03:36;18.20;99.90
47168;DHT22;32931;47.778;17.806;2023-10-13T02:06:08;18.20;99.90
47168;DHT22;32931;47.778;17.806;2023-10-13T02:08:37;18.20;99.90
47168;DHT22;32931;47.778;17.806;2023-10-13T02:11:06;18.20;99.90
47168;DHT22;32931;47.778;17.806;2023-10-13T02:13:33;18.20;99.90
47168;DHT22;32931;47.778;17.806;2023-10-13T02:15:59;18.20;99.90
47168;DHT22;32931;47.778;17.806;2023-10-13T02:18:30;18.20;99.90
47168;DHT22;32931;47.778;17.806;2023-10-13T02:21:09;18.20;99.90
47168;DHT22;32931;47.778;17.806;2023-10-13T02:23:40;18.20;99.90
47168;DHT22;32931;47.778;17.806;2023-10-13T02:26:26;18.20;99.90
47168;DHT22;32931;47.778;17.806;2023-10-13T02:29:04;18.20;99.90
47168;DHT22;32931;47.778;17.806;2023-10-13T02:31:37;18.20;99.90
47168;DHT22;32931;47.778;17.806;2023-10-13T02:34:04;18.20;99.90
47168;DHT22;32931;47.778;17.806;2023-10-13T02:36:35;18.20;99.90
47168;DHT22;32931;47.778;17.806;2023-10-13T02:39:18;18.20;99.90
47168;DHT22;32931;47.778;17.806;2023-10-13T02:41:53;18.30;99.90
47168;DHT22;32931;47.778;17.806;2023-10-13T02:44:21;18.30;99.90
47168;DHT22;32931;47.778;17.806;2023-10-13T02:46:57;18.30;99.90
47168;DHT22;32931;47.778;17.806;2023-10-13T02:49:26;18.30;99.90
47168;DHT22;32931;47.778;17.806;2023-10-13T02:51:53;18.30;99.90
47168;DHT22;32931;47.778;17.806;2023-10-13T02:54:21;18.30;99.90
47168;DHT22;32931;47.778;17.806;2023-10-13T02:56:47;18.30;99.90
47168;DHT22;32931;47.778;17.806;2023-10-13T02:59:26;18.30;99.90
47168;DHT22;32931;47.778;17.806;2023-10-13T03:02:16;18.30;99.90
47168;DHT22;32931;47.778;17.806;2023-10-13T03:04:57;18.30;99.90
47168;DHT22;32931;47.778;17.806;2023-10-13T03:07:27;18.30;99.90
47168;DHT22;32931;47.778;17.806;2023-10-13T03:09:58;18.20;99.90
47168;DHT22;32931;47.778;17.806;2023-10-13T03:12:26;18.30;99.90
47168;DHT22;32931;47.778;17.806;2023-10-13T03:14:59;18.20;99.90
47168;DHT22;32931;47.778;17.806;2023-10-13T03:17:57;18.20;99.90
47168;DHT22;32931;47.778;17.806;2023-10-13T03:20:27;18.20;99.90
47168;DHT22;32931;47.778;17.806;2023-10-13T03:23:00;18.30;99.90
47168;DHT22;32931;47.778;17.806;2023-10-13T03:25:26;18.20;99.90
47168;DHT22;32931;47.778;17.806;2023-10-13T03:27:56;18.20;99.90
47168;DHT22;32931;47.778;17.806;2023-10-13T03:30:22;18.20;99.90
47168;DHT22;32931;47.778;17.806;2023-10-13T03:32:56;18.20;99.90
47168;DHT22;32931;47.778;17.806;2023-10-13T03:35:22;18.20;99.90
47168;DHT22;32931;47.778;17.806;2023-10-13T03:37:57;18.20;99.90
47168;DHT22;32931;47.778;17.806;2023-10-13T03:40:23;18.20;99.90
47168;DHT22;32931;47.778;17.806;2023-10-13T03:45:36;18.20;99.90
47168;DHT22;32931;47.778;17.806;2023-10-13T03:48:12;18.20;99.90
47168;DHT22;32931;47.778;17.806;2023-10-13T03:50:57;18.20;99.90
47168;DHT22;32931;47.778;17.806;2023-10-13T03:53:33;18.20;99.90
47168;DHT22;32931;47.778;17.806;2023-10-13T03:56:04;18.20;99.90
47168;DHT22;32931;47.778;17.806;2023-10-13T03:58:53;18.20;99.90
47168;DHT22;32931;47.778;17.806;2023-10-13T04:01:20;18.20;99.90
47168;DHT22;32931;47.778;17.806;2023-10-13T04:03:59;18.20;99.90
47168;DHT22;32931;47.778;17.806;2023-10-13T04:06:36;18.20;99.90
47168;DHT22;32931;47.778;17.806;2023-10-13T04:09:23;18.20;99.90
47168;DHT22;32931;47.778;17.806;2023-10-13T04:11:59;18.20;99.90
47168;DHT22;32931;47.778;17.806;2023-10-13T04:14:45;18.20;99.90
47168;DHT22;32931;47.778;17.806;2023-10-13T04:17:24;18.20;99.90
47168;DHT22;32931;47.778;17.806;2023-10-13T04:19:59;18.20;99.90
47168;DHT22;32931;47.778;17.806;2023-10-13T04:25:24;18.20;99.90
47168;DHT22;32931;47.778;17.806;2023-10-13T04:28:15;18.20;99.90
47168;DHT22;32931;47.778;17.806;2023-10-13T04:31:00;18.20;99.90
47168;DHT22;32931;47.778;17.806;2023-10-13T04:33:38;18.20;99.90
47168;DHT22;32931;47.778;17.806;2023-10-13T04:36:18;18.20;99.90
47168;DHT22;32931;47.778;17.806;2023-10-13T04:38:59;18.20;99.90
47168;DHT22;32931;47.778;17.806;2023-10-13T04:41:27;18.20;99.90
47168;DHT22;32931;47.778;17.806;2023-10-13T04:43:58;18.20;99.90
47168;DHT22;32931;47.778;17.806;2023-10-13T04:46:31;18.20;99.90
47168;DHT22;32931;47.778;17.806;2023-10-13T04:49:12;18.20;99.90
47168;DHT22;32931;47.778;17.806;2023-10-13T04:51:58;18.20;99.90
47168;DHT22;32931;47.778;17.806;2023-10-13T04:54:26;18.20;99.90
47168;DHT22;32931;47.778;17.806;2023-10-13T04:56:59;18.20;99.90
47168;DHT22;32931;47.778;17.806;2023-10-13T04:59:49;18.20;99.90
47168;DHT22;32931;47.778;17.806;2023-10-13T05:02:34;18.20;99.90
47168;DHT22;32931;47.778;17.806;2023-10-13T05:07:29;18.20;99.90
47168;DHT22;32931;47.778;17.806;2023-10-13T05:10:14;18.30;99.90
47168;DHT22;32931;47.778;17.806;2023-10-13T05:12:58;18.20;99.90
47168;DHT22;32931;47.778;17.806;2023-10-13T05:15:52;18.30;99.90
47168;DHT22;32931;47.778;17.806;2023-10-13T05:18:37;18.20;99.90
47168;DHT22;32931;47.778;17.806;2023-10-13T05:21:22;18.20;99.90
47168;DHT22;32931;47.778;17.806;2023-10-13T05:24:08;18.20;99.90
47168;DHT22;32931;47.778;17.806;2023-10-13T05:26:53;18.20;99.90
47168;DHT22;32931;47.778;17.806;2023-10-13T05:29:42;18.20;99.90
47168;DHT22;32931;47.778;17.806;2023-10-13T05:32:27;18.20;99.90
47168;DHT22;32931;47.778;17.806;2023-10-13T05:35:13;18.20;99.90
47168;DHT22;32931;47.778;17.806;2023-10-13T05:37:58;18.20;99.90
47168;DHT22;32931;47.778;17.806;2023-10-13T05:41:00;18.20;99.90
47168;DHT22;32931;47.778;17.806;2023-10-13T05:43:45;18.10;99.90
47168;DHT22;32931;47.778;17.806;2023-10-13T05:46:32;18.10;99.90
47168;DHT22;32931;47.778;17.806;2023-10-13T05:49:15;18.00;99.90
47168;DHT22;32931;47.778;17.806;2023-10-13T05:51:44;18.00;99.90
47168;DHT22;32931;47.778;17.806;2023-10-13T05:54:23;18.00;99.90
47168;DHT22;32931;47.778;17.806;2023-10-13T05:57:08;18.00;99.90
47168;DHT22;32931;47.778;17.806;2023-10-13T05:59:53;18.00;99.90
47168;DHT22;32931;47.778;17.806;2023-10-13T06:02:37;18.00;99.90
47168;DHT22;32931;47.778;17.806;2023-10-13T06:05:22;18.00;99.90
47168;DHT22;32931;47.778;17.806;2023-10-13T06:08:06;18.00;99.90
47168;DHT22;32931;47.778;17.806;2023-10-13T06:11:01;18.10;99.90
47168;DHT22;32931;47.778;17.806;2023-10-13T06:13:46;18.10;99.90
47168;DHT22;32931;47.778;17.806;2023-10-13T06:16:31;18.10;99.90
47168;DHT22;32931;47.778;17.806;2023-10-13T06:19:15;18.10;99.90
47168;DHT22;32931;47.778;17.806;2023-10-13T06:22:00;18.20;99.90
47168;DHT22;32931;47.778;17.806;2023-10-13T06:24:44;18.20;99.90
47168;DHT22;32931;47.778;17.806;2023-10-13T06:27:29;18.20;99.90
47168;DHT22;32931;47.778;17.806;2023-10-13T06:30:13;18.20;99.90
47168;DHT22;32931;47.778;17.806;2023-10-13T06:32:39;18.20;99.90
47168;DHT22;32931;47.778;17.806;2023-10-13T06:35:06;18.30;99.90
47168;DHT22;32931;47.778;17.806;2023-10-13T06:37:44;18.30;99.90
47168;DHT22;32931;47.778;17.806;2023-10-13T06:40:12;18.40;99.90
47168;DHT22;32931;47.778;17.806;2023-10-13T06:42:51;18.40;99.90
47168;DHT22;32931;47.778;17.806;2023-10-13T06:45:19;18.40;99.90
47168;DHT22;32931;47.778;17.806;2023-10-13T06:47:47;18.50;99.90
47168;DHT22;32931;47.778;17.806;2023-10-13T06:50:18;18.50;99.90
47168;DHT22;32931;47.778;17.806;2023-10-13T06:52:51;18.50;99.90
47168;DHT22;32931;47.778;17.806;2023-10-13T06:55:21;18.60;99.90
47168;DHT22;32931;47.778;17.806;2023-10-13T06:57:56;18.60;99.90
47168;DHT22;32931;47.778;17.806;2023-10-13T07:00:28;18.60;99.90
47168;DHT22;32931;47.778;17.806;2023-10-13T07:02:55;18.60;99.90
47168;DHT22;32931;47.778;17.806;2023-10-13T07:05:38;18.70;99.90
47168;DHT22;32931;47.778;17.806;2023-10-13T07:08:05;18.70;99.90
47168;DHT22;32931;47.778;17.806;2023-10-13T07:10:32;18.80;99.90
47168;DHT22;32931;47.778;17.806;2023-10-13T07:13:11;18.80;99.90
47168;DHT22;32931;47.778;17.806;2023-10-13T07:15:40;18.80;99.90
47168;DHT22;32931;47.778;17.806;2023-10-13T07:18:14;18.90;99.90
47168;DHT22;32931;47.778;17.806;2023-10-13T07:20:43;18.90;99.90
47168;DHT22;32931;47.778;17.806;2023-10-13T07:23:12;18.90;99.90
47168;DHT22;32931;47.778;17.806;2023-10-13T07:25:55;19.00;99.90
47168;DHT22;32931;47.778;17.806;2023-10-13T07:28:32;19.00;99.90
47168;DHT22;32931;47.778;17.806;2023-10-13T07:31:05;19.10;99.90
47168;DHT22;32931;47.778;17.806;2023-10-13T07:33:31;19.10;99.90
47168;DHT22;32931;47.778;17.806;2023-10-13T07:36:08;19.10;99.90
47168;DHT22;32931;47.778;17.806;2023-10-13T07:38:47;19.20;99.90
47168;DHT22;32931;47.778;17.806;2023-10-13T07:41:27;19.10;99.90
47168;DHT22;32931;47.778;17.806;2023-10-13T07:43:56;19.10;99.90
47168;DHT22;32931;47.778;17.806;2023-10-13T07:46:25;19.10;99.90
47168;DHT22;32931;47.778;17.806;2023-10-13T07:48:57;19.10;99.90
47168;DHT22;32931;47.778;17.806;2023-10-13T07:51:35;19.10;99.90
47168;DHT22;32931;47.778;17.806;2023-10-13T07:54:12;19.20;99.90
47168;DHT22;32931;47.778;17.806;2023-10-13T07:56:40;19.20;99.90
47168;DHT22;32931;47.778;17.806;2023-10-13T07:59:07;19.20;99.90
47168;DHT22;32931;47.778;17.806;2023-10-13T08:01:35;19.30;99.90
47168;DHT22;32931;47.778;17.806;2023-10-13T08:04:01;19.40;99.90
47168;DHT22;32931;47.778;17.806;2023-10-13T08:06:38;19.40;99.90
47168;DHT22;32931;47.778;17.806;2023-10-13T08:09:06;19.50;99.90
47168;DHT22;32931;47.778;17.806;2023-10-13T08:11:56;19.50;99.90
47168;DHT22;32931;47.778;17.806;2023-10-13T08:14:22;19.50;99.90
47168;DHT22;32931;47.778;17.806;2023-10-13T08:16:49;19.50;99.90
47168;DHT22;32931;47.778;17.806;2023-10-13T08:19:21;19.60;99.90
47168;DHT22;32931;47.778;17.806;2023-10-13T08:21:59;19.60;99.90
47168;DHT22;32931;47.778;17.806;2023-10-13T08:24:26;19.70;99.90
47168;DHT22;32931;47.778;17.806;2023-10-13T08:27:18;19.80;99.90
47168;DHT22;32931;47.778;17.806;2023-10-13T08:30:07;19.80;99.90
47168;DHT22;32931;47.778;17.806;2023-10-13T08:32:52;19.90;99.90
47168;DHT22;32931;47.778;17.806;2023-10-13T08:35:23;20.00;99.90
47168;DHT22;32931;47.778;17.806;2023-10-13T08:38:01;20.00;99.90
47168;DHT22;32931;47.778;17.806;2023-10-13T08:40:30;20.10;99.90
47168;DHT22;32931;47.778;17.806;2023-10-13T08:43:15;20.20;99.90
47168;DHT22;32931;47.778;17.806;2023-10-13T08:45:43;20.20;99.90
47168;DHT22;32931;47.778;17.806;2023-10-13T08:48:12;20.30;99.90
47168;DHT22;32931;47.778;17.806;2023-10-13T08:50:45;20.40;99.90
47168;DHT22;32931;47.778;17.806;2023-10-13T08:53:21;20.40;99.90
47168;DHT22;32931;47.778;17.806;2023-10-13T08:56:03;20.50;99.90
47168;DHT22;32931;47.778;17.806;2023-10-13T08:58:29;20.60;99.90
47168;DHT22;32931;47.778;17.806;2023-10-13T09:01:15;20.60;99.90
47168;DHT22;32931;47.778;17.806;2023-10-13T09:04:05;20.70;99.90
47168;DHT22;32931;47.778;17.806;2023-10-13T09:07:00;20.70;99.90
47168;DHT22;32931;47.778;17.806;2023-10-13T09:09:51;20.80;99.90
47168;DHT22;32931;47.778;17.806;2023-10-13T09:12:23;20.90;99.90
47168;DHT22;32931;47.778;17.806;2023-10-13T09:15:10;21.00;99.90
47168;DHT22;32931;47.778;17.806;2023-10-13T09:17:45;21.00;99.90
47168;DHT22;32931;47.778;17.806;2023-10-13T09:20:14;21.10;99.90
47168;DHT22;32931;47.778;17.806;2023-10-13T09:23:15;21.10;99.90
47168;DHT22;32931;47.778;17.806;2023-10-13T09:25:51;21.20;99.90
47168;DHT22;32931;47.778;17.806;2023-10-13T09:28:27;21.30;99.90
47168;DHT22;32931;47.778;17.806;2023-10-13T09:30:55;21.40;99.90
47168;DHT22;32931;47.778;17.806;2023-10-13T09:33:29;21.40;99.90
47168;DHT22;32931;47.778;17.806;2023-10-13T09:36:16;21.50;99.90
47168;DHT22;32931;47.778;17.806;2023-10-13T09:38:43;21.50;99.90
47168;DHT22;32931;47.778;17.806;2023-10-13T09:41:37;21.60;99.90
47168;DHT22;32931;47.778;17.806;2023-10-13T09:44:03;21.70;99.90
47168;DHT22;32931;47.778;17.806;2023-10-13T09:46:30;21.80;99.90
47168;DHT22;32931;47.778;17.806;2023-10-13T09:49:12;21.80;99.90
47168;DHT22;32931;47.778;17.806;2023-10-13T09:51:46;22.00;99.90
47168;DHT22;32931;47.778;17.806;2023-10-13T09:54:29;22.00;99.90
47168;DHT22;32931;47.778;17.806;2023-10-13T09:57:06;22.10;99.90
47168;DHT22;32931;47.778;17.806;2023-10-13T09:59:44;22.20;99.90
47168;DHT22;32931;47.778;17.806;2023-10-13T10:02:18;22.30;99.90
47168;DHT22;32931;47.778;17.806;2023-10-13T10:04:55;22.30;99.90
47168;DHT22;32931;47.778;17.806;2023-10-13T10:07:37;22.30;99.90
47168;DHT22;32931;47.778;17.806;2023-10-13T10:10:05;22.40;99.90
47168;DHT22;32931;47.778;17.806;2023-10-13T10:13:01;22.50;99.90
47168;DHT22;32931;47.778;17.806;2023-10-13T10:15:35;22.50;99.90
47168;DHT22;32931;47.778;17.806;2023-10-13T10:18:22;22.60;99.90
47168;DHT22;32931;47.778;17.806;2023-10-13T10:20:51;22.60;99.90
47168;DHT22;32931;47.778;17.806;2023-10-13T10:25:50;22.70;99.90
47168;DHT22;32931;47.778;17.806;2023-10-13T10:28:17;22.70;99.90
47168;DHT22;32931;47.778;17.806;2023-10-13T10:30:46;22.70;99.90
47168;DHT22;32931;47.778;17.806;2023-10-13T10:33:13;22.80;99.90
47168;DHT22;32931;47.778;17.806;2023-10-13T10:35:46;22.80;99.90
47168;DHT22;32931;47.778;17.806;2023-10-13T10:38:14;22.90;99.90
47168;DHT22;32931;47.778;17.806;2023-10-13T10:40:54;22.90;99.90
47168;DHT22;32931;47.778;17.806;2023-10-13T10:46:28;23.00;99.90
47168;DHT22;32931;47.778;17.806;2023-10-13T10:49:04;23.00;99.90
47168;DHT22;32931;47.778;17.806;2023-10-13T10:51:40;23.00;99.90
47168;DHT22;32931;47.778;17.806;2023-10-13T10:54:20;23.10;99.90
47168;DHT22;32931;47.778;17.806;2023-10-13T10:56:46;23.10;99.90
47168;DHT22;32931;47.778;17.806;2023-10-13T10:59:18;23.10;99.90
47168;DHT22;32931;47.778;17.806;2023-10-13T11:01:46;23.20;99.90
47168;DHT22;32931;47.778;17.806;2023-10-13T11:04:13;23.20;99.90
47168;DHT22;32931;47.778;17.806;2023-10-13T11:06:50;23.20;99.90
47168;DHT22;32931;47.778;17.806;2023-10-13T11:09:34;23.30;99.90
47168;DHT22;32931;47.778;17.806;2023-10-13T11:12:15;23.30;99.90
47168;DHT22;32931;47.778;17.806;2023-10-13T11:14:43;23.30;99.90
47168;DHT22;32931;47.778;17.806;2023-10-13T11:17:21;23.30;99.90
47168;DHT22;32931;47.778;17.806;2023-10-13T11:19:52;23.40;99.90
47168;DHT22;32931;47.778;17.806;2023-10-13T11:22:22;23.40;99.90
47168;DHT22;32931;47.778;17.806;2023-10-13T11:25:25;23.40;99.90
47168;DHT22;32931;47.778;17.806;2023-10-13T11:28:33;23.40;99.90
47168;DHT22;32931;47.778;17.806;2023-10-13T11:31:00;23.40;99.90
47168;DHT22;32931;47.778;17.806;2023-10-13T11:33:33;23.40;99.90
47168;DHT22;32931;47.778;17.806;2023-10-13T11:35:59;23.40;99.90
47168;DHT22;32931;47.778;17.806;2023-10-13T11:38:30;23.50;99.90
47168;DHT22;32931;47.778;17.806;2023-10-13T11:41:09;23.50;99.90
47168;DHT22;32931;47.778;17.806;2023-10-13T11:43:40;23.60;99.90
47168;DHT22;32931;47.778;17.806;2023-10-13T11:46:22;23.60;99.90
47168;DHT22;32931;47.778;17.806;2023-10-13T11:49:04;23.60;99.90
47168;DHT22;32931;47.778;17.806;2023-10-13T11:51:50;23.70;99.90
47168;DHT22;32931;47.778;17.806;2023-10-13T11:54:18;23.70;99.90
47168;DHT22;32931;47.778;17.806;2023-10-13T11:56:45;23.70;99.90
47168;DHT22;32931;47.778;17.806;2023-10-13T11:59:12;23.70;99.90
47168;DHT22;32931;47.778;17.806;2023-10-13T12:01:47;23.60;99.90
47168;DHT22;32931;47.778;17.806;2023-10-13T12:04:33;23.60;99.90
47168;DHT22;32931;47.778;17.806;2023-10-13T12:07:11;23.60;99.90
47168;DHT22;32931;47.778;17.806;2023-10-13T12:09:47;23.60;99.90
47168;DHT22;32931;47.778;17.806;2023-10-13T12:12:26;23.60;99.90
47168;DHT22;32931;47.778;17.806;2023-10-13T12:14:53;23.60;99.90
47168;DHT22;32931;47.778;17.806;2023-10-13T12:17:25;23.60;99.90
47168;DHT22;32931;47.778;17.806;2023-10-13T12:20:03;23.70;99.90
47168;DHT22;32931;47.778;17.806;2023-10-13T12:22:37;23.70;99.90
47168;DHT22;32931;47.778;17.806;2023-10-13T12:25:09;23.80;99.90
47168;DHT22;32931;47.778;17.806;2023-10-13T12:27:54;23.90;99.90
47168;DHT22;32931;47.778;17.806;2023-10-13T12:30:26;23.90;99.90
47168;DHT22;32931;47.778;17.806;2023-10-13T12:33:02;24.10;99.20
47168;DHT22;32931;47.778;17.806;2023-10-13T12:35:36;24.10;99.20
47168;DHT22;32931;47.778;17.806;2023-10-13T12:38:22;24.20;99.10
47168;DHT22;32931;47.778;17.806;2023-10-13T12:41:07;24.20;98.70
47168;DHT22;32931;47.778;17.806;2023-10-13T12:43:51;24.30;98.90
47168;DHT22;32931;47.778;17.806;2023-10-13T12:46:37;24.30;98.60
47168;DHT22;32931;47.778;17.806;2023-10-13T12:49:22;24.30;98.60
47168;DHT22;32931;47.778;17.806;2023-10-13T12:52:06;24.30;98.30
47168;DHT22;32931;47.778;17.806;2023-10-13T12:54:42;24.40;97.40
47168;DHT22;32931;47.778;17.806;2023-10-13T12:57:16;24.50;97.20
47168;DHT22;32931;47.778;17.806;2023-10-13T12:59:43;24.50;97.40
47168;DHT22;32931;47.778;17.806;2023-10-13T13:02:09;24.60;97.30
47168;DHT22;32931;47.778;17.806;2023-10-13T13:04:41;24.60;97.00
47168;DHT22;32931;47.778;17.806;2023-10-13T13:07:10;24.70;97.40
47168;DHT22;32931;47.778;17.806;2023-10-13T13:09:40;24.70;96.90
47168;DHT22;32931;47.778;17.806;2023-10-13T13:12:06;24.70;96.70
47168;DHT22;32931;47.778;17.806;2023-10-13T13:14:33;24.70;96.70
47168;DHT22;32931;47.778;17.806;2023-10-13T13:17:01;24.70;96.50
47168;DHT22;32931;47.778;17.806;2023-10-13T13:19:34;24.70;96.80
47168;DHT22;32931;47.778;17.806;2023-10-13T13:22:02;24.70;96.70
47168;DHT22;32931;47.778;17.806;2023-10-13T13:24:35;24.70;96.80
47168;DHT22;32931;47.778;17.806;2023-10-13T13:27:13;24.70;97.00
47168;DHT22;32931;47.778;17.806;2023-10-13T13:29:45;24.60;96.60
47168;DHT22;32931;47.778;17.806;2023-10-13T13:32:12;24.60;96.60
47168;DHT22;32931;47.778;17.806;2023-10-13T13:34:51;24.50;96.50
47168;DHT22;32931;47.778;17.806;2023-10-13T13:37:30;24.50;96.30
47168;DHT22;32931;47.778;17.806;2023-10-13T13:39:57;24.50;96.20
47168;DHT22;32931;47.778;17.806;2023-10-13T13:42:43;24.60;96.40
47168;DHT22;32931;47.778;17.806;2023-10-13T13:45:16;24.60;96.60
47168;DHT22;32931;47.778;17.806;2023-10-13T13:48:03;24.60;96.00
47168;DHT22;32931;47.778;17.806;2023-10-13T13:50:37;24.60;96.20
47168;DHT22;32931;47.778;17.806;2023-10-13T13:53:07;24.70;95.70
47168;DHT22;32931;47.778;17.806;2023-10-13T13:55:37;24.70;96.30
47168;DHT22;32931;47.778;17.806;2023-10-13T13:58:06;24.70;95.80
47168;DHT22;32931;47.778;17.806;2023-10-13T14:00:34;24.60;96.10
47168;DHT22;32931;47.778;17.806;2023-10-13T14:03:23;24.60;96.40
47168;DHT22;32931;47.778;17.806;2023-10-13T14:05:59;24.60;96.50
47168;DHT22;32931;47.778;17.806;2023-10-13T14:08:26;24.60;96.80
47168;DHT22;32931;47.778;17.806;2023-10-13T14:10:53;24.50;97.00
47168;DHT22;32931;47.778;17.806;2023-10-13T14:13:38;24.50;96.80
47168;DHT22;32931;47.778;17.806;2023-10-13T14:16:21;24.50;97.00
47168;DHT22;32931;47.778;17.806;2023-10-13T14:18:50;24.50;97.20
47168;DHT22;32931;47.778;17.806;2023-10-13T14:21:17;24.40;97.30
47168;DHT22;32931;47.778;17.806;2023-10-13T14:26:15;24.40;97.00
47168;DHT22;32931;47.778;17.806;2023-10-13T14:28:45;24.40;97.00
47168;DHT22;32931;47.778;17.806;2023-10-13T14:31:27;24.40;96.90
47168;DHT22;32931;47.778;17.806;2023-10-13T14:33:53;24.30;96.90
47168;DHT22;32931;47.778;17.806;2023-10-13T14:36:19;24.30;96.90
47168;DHT22;32931;47.778;17.806;2023-10-13T14:38:46;24.40;96.90
47168;DHT22;32931;47.778;17.806;2023-10-13T14:41:16;24.30;97.00
47168;DHT22;32931;47.778;17.806;2023-10-13T14:43:43;24.30;97.30
47168;DHT22;32931;47.778;17.806;2023-10-13T14:46:15;24.30;97.30
47168;DHT22;32931;47.778;17.806;2023-10-13T14:48:45;24.30;97.60
47168;DHT22;32931;47.778;17.806;2023-10-13T14:51:14;24.30;97.80
47168;DHT22;32931;47.778;17.806;2023-10-13T14:53:45;24.30;98.00
47168;DHT22;32931;47.778;17.806;2023-10-13T14:56:16;24.20;97.80
47168;DHT22;32931;47.778;17.806;2023-10-13T14:58:43;24.20;97.80
47168;DHT22;32931;47.778;17.806;2023-10-13T15:01:13;24.20;97.70
47168;DHT22;32931;47.778;17.806;2023-10-13T15:03:42;24.20;97.60
47168;DHT22;32931;47.778;17.806;2023-10-13T15:06:15;24.20;97.50
47168;DHT22;32931;47.778;17.806;2023-10-13T15:08:47;24.20;97.30
47168;DHT22;32931;47.778;17.806;2023-10-13T15:11:14;24.10;97.00
47168;DHT22;32931;47.778;17.806;2023-10-13T15:13:41;24.10;96.80
47168;DHT22;32931;47.778;17.806;2023-10-13T15:16:14;24.10;96.80
47168;DHT22;32931;47.778;17.806;2023-10-13T15:18:47;24.10;97.20
47168;DHT22;32931;47.778;17.806;2023-10-13T15:23:47;24.20;97.20
47168;DHT22;32931;47.778;17.806;2023-10-13T15:26:14;24.20;96.80
47168;DHT22;32931;47.778;17.806;2023-10-13T15:28:41;24.20;96.60
47168;DHT22;32931;47.778;17.806;2023-10-13T15:31:20;24.20;96.50
47168;DHT22;32931;47.778;17.806;2023-10-13T15:33:53;24.10;96.50
47168;DHT22;32931;47.778;17.806;2023-10-13T15:36:23;24.10;96.60
47168;DHT22;32931;47.778;17.806;2023-10-13T15:38:50;24.00;96.80
47168;DHT22;32931;47.778;17.806;2023-10-13T15:41:28;24.00;97.00
47168;DHT22;32931;47.778;17.806;2023-10-13T15:43:55;24.00;97.60
47168;DHT22;32931;47.778;17.806;2023-10-13T15:46:22;23.90;97.80
47168;DHT22;32931;47.778;17.806;2023-10-13T15:48:49;23.80;97.80
47168;DHT22;32931;47.778;17.806;2023-10-13T15:51:16;23.70;98.00
47168;DHT22;32931;47.778;17.806;2023-10-13T15:53:43;23.70;98.30
47168;DHT22;32931;47.778;17.806;2023-10-13T15:56:11;23.60;98.50
47168;DHT22;32931;47.778;17.806;2023-10-13T15:58:41;23.50;98.60
47168;DHT22;32931;47.778;17.806;2023-10-13T16:01:13;23.40;98.80
47168;DHT22;32931;47.778;17.806;2023-10-13T16:03:43;23.40;99.00
47168;DHT22;32931;47.778;17.806;2023-10-13T16:06:10;23.30;99.10
47168;DHT22;32931;47.778;17.806;2023-10-13T16:08:37;23.20;99.30
47168;DHT22;32931;47.778;17.806;2023-10-13T16:11:07;23.10;99.40
47168;DHT22;32931;47.778;17.806;2023-10-13T16:13:37;23.10;99.10
47168;DHT22;32931;47.778;17.806;2023-10-13T16:16:03;23.00;99.30
47168;DHT22;32931;47.778;17.806;2023-10-13T16:18:29;22.90;99.30
47168;DHT22;32931;47.778;17.806;2023-10-13T16:20:59;22.90;99.10
47168;DHT22;32931;47.778;17.806;2023-10-13T16:23:27;22.80;99.20